sensor_id;sensor_type;location;lat;lon;timestamp;temperature;humidity
22850;DHT22;11591;44.792;10.358;2023-05-10T00:00:53;16.60;99.90
22850;DHT22;11591;44.792;10.358;2023-05-10T00:03:18;16.60;99.90
22850;DHT22;11591;44.792;10.358;2023-05-10T00:05:44;16.60;99.90
22850;DHT22;11591;44.792;10.358;2023-05-10T00:08:10;16.50;99.90
22850;DHT22;11591;44.792;10.358;2023-05-10T00:10:36;16.50;99.90
22850;DHT22;11591;44.792;10.358;2023-05-10T00:13:03;16.50;99.90
22850;DHT22;11591;44.792;10.358;2023-05-10T00:15:28;16.60;99.90
22850;DHT22;11591;44.792;10.358;2023-05-10T00:17:56;16.70;99.90
22850;DHT22;11591;44.792;10.358;2023-05-10T00:20:22;16.70;99.90
22850;DHT22;11591;44.792;10.358;2023-05-10T00:22:48;16.70;99.90
22850;DHT22;11591;44.792;10.358;2023-05-10T00:25:13;16.70;99.90
22850;DHT22;11591;44.792;10.358;2023-05-10T00:27:39;16.70;99.90
22850;DHT22;11591;44.792;10.358;2023-05-10T00:30:06;16.80;99.90
22850;DHT22;11591;44.792;10.358;2023-05-10T00:32:32;16.70;99.90
22850;DHT22;11591;44.792;10.358;2023-05-10T00:34:58;16.70;99.90
22850;DHT22;11591;44.792;10.358;2023-05-10T00:37:24;16.80;99.90
22850;DHT22;11591;44.792;10.358;2023-05-10T00:39:50;16.80;99.90
22850;DHT22;11591;44.792;10.358;2023-05-10T00:42:15;16.80;99.90
22850;DHT22;11591;44.792;10.358;2023-05-10T00:44:42;16.70;99.90
22850;DHT22;11591;44.792;10.358;2023-05-10T00:47:08;16.70;99.90
22850;DHT22;11591;44.792;10.358;2023-05-10T00:49:34;16.70;99.90
22850;DHT22;11591;44.792;10.358;2023-05-10T00:52:01;16.70;99.90
22850;DHT22;11591;44.792;10.358;2023-05-10T00:54:28;16.70;99.90
22850;DHT22;11591;44.792;10.358;2023-05-10T00:56:53;16.70;99.90
22850;DHT22;11591;44.792;10.358;2023-05-10T00:59:20;16.70;99.90
22850;DHT22;11591;44.792;10.358;2023-05-10T01:01:46;16.70;99.90
22850;DHT22;11591;44.792;10.358;2023-05-10T01:04:13;16.70;99.90
22850;DHT22;11591;44.792;10.358;2023-05-10T01:06:43;16.70;99.90
22850;DHT22;11591;44.792;10.358;2023-05-10T01:09:09;16.70;99.90
22850;DHT22;11591;44.792;10.358;2023-05-10T01:11:38;16.70;99.90
22850;DHT22;11591;44.792;10.358;2023-05-10T01:14:05;16.70;99.90
22850;DHT22;11591;44.792;10.358;2023-05-10T01:16:41;16.70;99.90
22850;DHT22;11591;44.792;10.358;2023-05-10T01:19:17;16.70;99.90
22850;DHT22;11591;44.792;10.358;2023-05-10T01:35:23;16.90;99.90
22850;DHT22;11591;44.792;10.358;2023-05-10T01:38:18;16.90;99.90
22850;DHT22;11591;44.792;10.358;2023-05-10T01:41:24;16.90;99.90
22850;DHT22;11591;44.792;10.358;2023-05-10T01:46:48;16.80;99.90
22850;DHT22;11591;44.792;10.358;2023-05-10T01:49:26;16.70;99.90
22850;DHT22;11591;44.792;10.358;2023-05-10T01:52:00;16.60;99.90
22850;DHT22;11591;44.792;10.358;2023-05-10T01:54:27;16.60;99.90
22850;DHT22;11591;44.792;10.358;2023-05-10T01:57:01;16.50;99.90
22850;DHT22;11591;44.792;10.358;2023-05-10T01:59:34;16.50;99.90
22850;DHT22;11591;44.792;10.358;2023-05-10T02:02:07;16.40;99.90
22850;DHT22;11591;44.792;10.358;2023-05-10T02:04:39;16.40;99.90
22850;DHT22;11591;44.792;10.358;2023-05-10T02:07:06;16.50;99.90
22850;DHT22;11591;44.792;10.358;2023-05-10T02:09:33;16.40;99.90
22850;DHT22;11591;44.792;10.358;2023-05-10T02:12:01;16.50;99.90
22850;DHT22;11591;44.792;10.358;2023-05-10T02:14:30;16.50;99.90
22850;DHT22;11591;44.792;10.358;2023-05-10T02:16:58;16.50;99.90
22850;DHT22;11591;44.792;10.358;2023-05-10T02:19:28;16.50;99.90
22850;DHT22;11591;44.792;10.358;2023-05-10T02:21:56;16.50;99.90
22850;DHT22;11591;44.792;10.358;2023-05-10T02:24:24;16.40;99.90
22850;DHT22;11591;44.792;10.358;2023-05-10T02:26:51;16.40;99.90
22850;DHT22;11591;44.792;10.358;2023-05-10T02:29:19;16.40;99.90
22850;DHT22;11591;44.792;10.358;2023-05-10T02:31:47;16.30;99.90
22850;DHT22;11591;44.792;10.358;2023-05-10T02:34:13;16.30;99.90
22850;DHT22;11591;44.792;10.358;2023-05-10T02:36:40;16.30;99.90
22850;DHT22;11591;44.792;10.358;2023-05-10T02:39:06;16.30;99.90
22850;DHT22;11591;44.792;10.358;2023-05-10T02:41:42;16.30;99.90
22850;DHT22;11591;44.792;10.358;2023-05-10T02:44:09;16.20;99.90
22850;DHT22;11591;44.792;10.358;2023-05-10T02:46:36;16.20;99.90
22850;DHT22;11591;44.792;10.358;2023-05-10T02:49:03;16.30;99.90
22850;DHT22;11591;44.792;10.358;2023-05-10T02:51:31;16.30;99.90
22850;DHT22;11591;44.792;10.358;2023-05-10T02:54:04;16.20;99.90
22850;DHT22;11591;44.792;10.358;2023-05-10T02:56:34;16.20;99.90
22850;DHT22;11591;44.792;10.358;2023-05-10T02:59:01;16.10;99.90
22850;DHT22;11591;44.792;10.358;2023-05-10T03:01:27;16.00;99.90
22850;DHT22;11591;44.792;10.358;2023-05-10T03:03:53;16.10;99.90
22850;DHT22;11591;44.792;10.358;2023-05-10T03:06:19;16.00;99.90
22850;DHT22;11591;44.792;10.358;2023-05-10T03:08:45;16.10;99.90
22850;DHT22;11591;44.792;10.358;2023-05-10T03:17:06;16.00;99.90
22850;DHT22;11591;44.792;10.358;2023-05-10T03:19:46;16.00;99.90
22850;DHT22;11591;44.792;10.358;2023-05-10T03:22:25;16.00;99.90
22850;DHT22;11591;44.792;10.358;2023-05-10T03:24:54;16.00;99.90
22850;DHT22;11591;44.792;10.358;2023-05-10T03:27:23;16.00;99.90
22850;DHT22;11591;44.792;10.358;2023-05-10T03:29:50;15.90;99.90
22850;DHT22;11591;44.792;10.358;2023-05-10T03:32:17;15.80;99.90
22850;DHT22;11591;44.792;10.358;2023-05-10T03:34:43;15.80;99.90
22850;DHT22;11591;44.792;10.358;2023-05-10T03:37:09;15.80;99.90
22850;DHT22;11591;44.792;10.358;2023-05-10T03:39:35;15.80;99.90
22850;DHT22;11591;44.792;10.358;2023-05-10T03:42:04;15.80;99.90
22850;DHT22;11591;44.792;10.358;2023-05-10T03:44:30;15.80;99.90
22850;DHT22;11591;44.792;10.358;2023-05-10T03:46:58;15.80;99.90
22850;DHT22;11591;44.792;10.358;2023-05-10T03:49:25;15.80;99.90
22850;DHT22;11591;44.792;10.358;2023-05-10T03:51:50;15.80;99.90
22850;DHT22;11591;44.792;10.358;2023-05-10T03:54:16;15.80;99.90
22850;DHT22;11591;44.792;10.358;2023-05-10T03:56:42;15.80;99.90
22850;DHT22;11591;44.792;10.358;2023-05-10T03:59:08;15.80;99.90
22850;DHT22;11591;44.792;10.358;2023-05-10T04:01:35;15.80;99.90
22850;DHT22;11591;44.792;10.358;2023-05-10T04:04:01;15.80;99.90
22850;DHT22;11591;44.792;10.358;2023-05-10T04:06:26;15.70;99.90
22850;DHT22;11591;44.792;10.358;2023-05-10T04:08:53;15.80;99.90
22850;DHT22;11591;44.792;10.358;2023-05-10T04:11:19;15.80;99.90
22850;DHT22;11591;44.792;10.358;2023-05-10T04:13:47;15.80;99.90
22850;DHT22;11591;44.792;10.358;2023-05-10T04:16:13;15.80;99.90
22850;DHT22;11591;44.792;10.358;2023-05-10T04:18:38;15.80;99.90
22850;DHT22;11591;44.792;10.358;2023-05-10T04:21:11;15.70;99.90
22850;DHT22;11591;44.792;10.358;2023-05-10T04:23:37;15.80;99.90
22850;DHT22;11591;44.792;10.358;2023-05-10T04:26:03;15.80;99.90
22850;DHT22;11591;44.792;10.358;2023-05-10T04:28:29;15.80;99.90
22850;DHT22;11591;44.792;10.358;2023-05-10T04:31:05;15.70;99.90
22850;DHT22;11591;44.792;10.358;2023-05-10T04:33:31;15.70;99.90
22850;DHT22;11591;44.792;10.358;2023-05-10T04:35:58;15.70;99.90
22850;DHT22;11591;44.792;10.358;2023-05-10T04:38:23;15.70;99.90
22850;DHT22;11591;44.792;10.358;2023-05-10T04:40:50;15.70;99.90
22850;DHT22;11591;44.792;10.358;2023-05-10T04:43:16;15.80;99.90
22850;DHT22;11591;44.792;10.358;2023-05-10T04:45:41;15.80;99.90
22850;DHT22;11591;44.792;10.358;2023-05-10T04:48:07;15.70;99.90
22850;DHT22;11591;44.792;10.358;2023-05-10T04:50:33;15.70;99.90
22850;DHT22;11591;44.792;10.358;2023-05-10T04:52:59;15.70;99.90
22850;DHT22;11591;44.792;10.358;2023-05-10T04:55:24;15.70;99.90
22850;DHT22;11591;44.792;10.358;2023-05-10T04:57:52;15.70;99.90
22850;DHT22;11591;44.792;10.358;2023-05-10T05:00:18;15.70;99.90
22850;DHT22;11591;44.792;10.358;2023-05-10T05:02:44;15.80;99.90
22850;DHT22;11591;44.792;10.358;2023-05-10T05:05:13;15.80;99.90
22850;DHT22;11591;44.792;10.358;2023-05-10T05:07:39;15.80;99.90
22850;DHT22;11591;44.792;10.358;2023-05-10T05:10:08;15.80;99.90
22850;DHT22;11591;44.792;10.358;2023-05-10T05:12:34;15.70;99.90
22850;DHT22;11591;44.792;10.358;2023-05-10T05:15:01;15.70;99.90
22850;DHT22;11591;44.792;10.358;2023-05-10T05:17:27;15.70;99.90
22850;DHT22;11591;44.792;10.358;2023-05-10T05:19:52;15.70;99.90
22850;DHT22;11591;44.792;10.358;2023-05-10T05:22:18;15.70;99.90
22850;DHT22;11591;44.792;10.358;2023-05-10T05:24:53;15.60;99.90
22850;DHT22;11591;44.792;10.358;2023-05-10T05:27:20;15.50;99.90
22850;DHT22;11591;44.792;10.358;2023-05-10T05:29:50;15.50;99.90
22850;DHT22;11591;44.792;10.358;2023-05-10T05:32:17;15.40;99.90
22850;DHT22;11591;44.792;10.358;2023-05-10T05:34:46;15.40;99.90
22850;DHT22;11591;44.792;10.358;2023-05-10T05:37:15;15.40;99.90
22850;DHT22;11591;44.792;10.358;2023-05-10T05:39:42;15.30;99.90
22850;DHT22;11591;44.792;10.358;2023-05-10T05:42:08;15.30;99.90
22850;DHT22;11591;44.792;10.358;2023-05-10T05:44:34;15.20;99.90
22850;DHT22;11591;44.792;10.358;2023-05-10T05:47:00;15.20;99.90
22850;DHT22;11591;44.792;10.358;2023-05-10T05:49:26;15.10;99.90
22850;DHT22;11591;44.792;10.358;2023-05-10T05:51:52;15.10;99.90
22850;DHT22;11591;44.792;10.358;2023-05-10T05:54:17;15.00;99.90
22850;DHT22;11591;44.792;10.358;2023-05-10T05:56:43;15.00;99.90
22850;DHT22;11591;44.792;10.358;2023-05-10T05:59:10;15.00;99.90
22850;DHT22;11591;44.792;10.358;2023-05-10T06:01:36;15.00;99.90
22850;DHT22;11591;44.792;10.358;2023-05-10T06:04:02;15.00;99.90
22850;DHT22;11591;44.792;10.358;2023-05-10T06:06:28;15.00;99.90
22850;DHT22;11591;44.792;10.358;2023-05-10T06:08:54;15.00;99.90
22850;DHT22;11591;44.792;10.358;2023-05-10T06:11:20;15.00;99.90
22850;DHT22;11591;44.792;10.358;2023-05-10T06:13:47;15.00;99.90
22850;DHT22;11591;44.792;10.358;2023-05-10T06:16:12;15.00;99.90
22850;DHT22;11591;44.792;10.358;2023-05-10T06:18:39;15.00;99.90
22850;DHT22;11591;44.792;10.358;2023-05-10T06:21:05;14.90;99.90
22850;DHT22;11591;44.792;10.358;2023-05-10T06:23:30;14.90;99.90
22850;DHT22;11591;44.792;10.358;2023-05-10T06:25:56;14.90;99.90
22850;DHT22;11591;44.792;10.358;2023-05-10T06:28:22;14.80;99.90
22850;DHT22;11591;44.792;10.358;2023-05-10T06:30:47;14.80;99.90
22850;DHT22;11591;44.792;10.358;2023-05-10T06:33:13;14.70;99.90
22850;DHT22;11591;44.792;10.358;2023-05-10T06:35:39;14.80;99.90
22850;DHT22;11591;44.792;10.358;2023-05-10T06:38:04;14.80;99.90
22850;DHT22;11591;44.792;10.358;2023-05-10T06:40:30;14.70;99.90
22850;DHT22;11591;44.792;10.358;2023-05-10T06:42:56;14.70;99.90
22850;DHT22;11591;44.792;10.358;2023-05-10T06:45:22;14.70;99.90
22850;DHT22;11591;44.792;10.358;2023-05-10T06:47:47;14.70;99.90
22850;DHT22;11591;44.792;10.358;2023-05-10T06:50:13;14.70;99.90
22850;DHT22;11591;44.792;10.358;2023-05-10T06:52:40;14.70;99.90
22850;DHT22;11591;44.792;10.358;2023-05-10T06:55:06;14.70;99.90
22850;DHT22;11591;44.792;10.358;2023-05-10T06:57:32;14.60;99.90
22850;DHT22;11591;44.792;10.358;2023-05-10T06:59:59;14.60;99.90
22850;DHT22;11591;44.792;10.358;2023-05-10T07:02:25;14.50;99.90
22850;DHT22;11591;44.792;10.358;2023-05-10T07:04:51;14.50;99.90
22850;DHT22;11591;44.792;10.358;2023-05-10T07:07:17;14.40;99.90
22850;DHT22;11591;44.792;10.358;2023-05-10T07:09:43;14.40;99.90
22850;DHT22;11591;44.792;10.358;2023-05-10T07:12:09;14.50;99.90
22850;DHT22;11591;44.792;10.358;2023-05-10T07:14:35;14.40;99.90
22850;DHT22;11591;44.792;10.358;2023-05-10T07:17:01;14.40;99.90
22850;DHT22;11591;44.792;10.358;2023-05-10T07:19:26;14.40;99.90
22850;DHT22;11591;44.792;10.358;2023-05-10T07:21:52;14.40;99.90
22850;DHT22;11591;44.792;10.358;2023-05-10T07:24:18;14.50;99.90
22850;DHT22;11591;44.792;10.358;2023-05-10T07:26:44;14.40;99.90
22850;DHT22;11591;44.792;10.358;2023-05-10T07:29:09;14.40;99.90
22850;DHT22;11591;44.792;10.358;2023-05-10T07:31:35;14.40;99.90
22850;DHT22;11591;44.792;10.358;2023-05-10T07:34:01;14.30;99.90
22850;DHT22;11591;44.792;10.358;2023-05-10T07:36:27;14.30;99.90
22850;DHT22;11591;44.792;10.358;2023-05-10T07:38:53;14.30;99.90
22850;DHT22;11591;44.792;10.358;2023-05-10T07:41:19;14.30;99.90
22850;DHT22;11591;44.792;10.358;2023-05-10T07:43:46;14.30;99.90
22850;DHT22;11591;44.792;10.358;2023-05-10T07:46:12;14.30;99.90
22850;DHT22;11591;44.792;10.358;2023-05-10T07:48:37;14.20;99.90
22850;DHT22;11591;44.792;10.358;2023-05-10T07:51:03;14.10;99.90
22850;DHT22;11591;44.792;10.358;2023-05-10T07:53:29;14.00;99.90
22850;DHT22;11591;44.792;10.358;2023-05-10T07:55:57;13.80;99.90
22850;DHT22;11591;44.792;10.358;2023-05-10T07:58:24;13.80;99.90
22850;DHT22;11591;44.792;10.358;2023-05-10T08:00:50;13.90;99.90
22850;DHT22;11591;44.792;10.358;2023-05-10T08:03:16;13.90;99.90
22850;DHT22;11591;44.792;10.358;2023-05-10T08:05:42;13.90;99.90
22850;DHT22;11591;44.792;10.358;2023-05-10T08:08:08;13.90;99.90
22850;DHT22;11591;44.792;10.358;2023-05-10T08:10:34;13.90;99.90
22850;DHT22;11591;44.792;10.358;2023-05-10T08:13:00;13.90;99.90
22850;DHT22;11591;44.792;10.358;2023-05-10T08:15:26;13.90;99.90
22850;DHT22;11591;44.792;10.358;2023-05-10T08:17:52;13.80;99.90
22850;DHT22;11591;44.792;10.358;2023-05-10T08:20:18;13.70;99.90
22850;DHT22;11591;44.792;10.358;2023-05-10T08:22:47;13.60;99.90
22850;DHT22;11591;44.792;10.358;2023-05-10T08:25:13;13.60;99.90
22850;DHT22;11591;44.792;10.358;2023-05-10T08:27:38;13.40;99.90
22850;DHT22;11591;44.792;10.358;2023-05-10T08:30:04;13.10;99.90
22850;DHT22;11591;44.792;10.358;2023-05-10T08:32:30;12.90;99.90
22850;DHT22;11591;44.792;10.358;2023-05-10T08:34:56;12.40;99.90
22850;DHT22;11591;44.792;10.358;2023-05-10T08:37:23;12.40;99.90
22850;DHT22;11591;44.792;10.358;2023-05-10T08:39:49;12.50;99.90
22850;DHT22;11591;44.792;10.358;2023-05-10T08:42:19;12.50;99.90
22850;DHT22;11591;44.792;10.358;2023-05-10T08:44:48;12.50;99.90
22850;DHT22;11591;44.792;10.358;2023-05-10T08:47:16;12.60;99.90
22850;DHT22;11591;44.792;10.358;2023-05-10T08:49:44;12.50;99.90
22850;DHT22;11591;44.792;10.358;2023-05-10T08:52:15;12.60;99.90
22850;DHT22;11591;44.792;10.358;2023-05-10T08:54:42;12.60;99.90
22850;DHT22;11591;44.792;10.358;2023-05-10T08:57:08;12.70;99.90
22850;DHT22;11591;44.792;10.358;2023-05-10T08:59:34;12.70;99.90
22850;DHT22;11591;44.792;10.358;2023-05-10T09:02:00;12.60;99.90
22850;DHT22;11591;44.792;10.358;2023-05-10T09:04:27;12.60;99.90
22850;DHT22;11591;44.792;10.358;2023-05-10T09:06:54;12.60;99.90
22850;DHT22;11591;44.792;10.358;2023-05-10T09:09:21;12.70;99.90
22850;DHT22;11591;44.792;10.358;2023-05-10T09:11:47;12.70;99.90
22850;DHT22;11591;44.792;10.358;2023-05-10T09:14:13;12.70;99.90
22850;DHT22;11591;44.792;10.358;2023-05-10T09:16:40;12.80;99.90
22850;DHT22;11591;44.792;10.358;2023-05-10T09:19:07;12.80;99.90
22850;DHT22;11591;44.792;10.358;2023-05-10T09:21:35;12.90;99.90
22850;DHT22;11591;44.792;10.358;2023-05-10T09:24:05;12.90;99.90
22850;DHT22;11591;44.792;10.358;2023-05-10T09:26:32;12.90;99.90
22850;DHT22;11591;44.792;10.358;2023-05-10T09:28:59;12.90;99.90
22850;DHT22;11591;44.792;10.358;2023-05-10T09:34:16;12.80;99.90
22850;DHT22;11591;44.792;10.358;2023-05-10T09:39:18;12.80;99.90
22850;DHT22;11591;44.792;10.358;2023-05-10T09:41:44;12.80;99.90
22850;DHT22;11591;44.792;10.358;2023-05-10T09:44:09;12.80;99.90
22850;DHT22;11591;44.792;10.358;2023-05-10T09:46:35;12.90;99.90
22850;DHT22;11591;44.792;10.358;2023-05-10T09:49:02;13.00;99.90
22850;DHT22;11591;44.792;10.358;2023-05-10T09:51:28;13.00;99.90
22850;DHT22;11591;44.792;10.358;2023-05-10T09:54:15;13.10;99.90
22850;DHT22;11591;44.792;10.358;2023-05-10T09:56:42;13.10;99.90
22850;DHT22;11591;44.792;10.358;2023-05-10T09:59:12;13.10;99.90
22850;DHT22;11591;44.792;10.358;2023-05-10T10:01:38;13.10;99.90
22850;DHT22;11591;44.792;10.358;2023-05-10T10:04:09;13.20;99.90
22850;DHT22;11591;44.792;10.358;2023-05-10T10:06:39;13.30;99.90
22850;DHT22;11591;44.792;10.358;2023-05-10T10:09:06;13.30;99.90
22850;DHT22;11591;44.792;10.358;2023-05-10T10:11:33;13.40;99.90
22850;DHT22;11591;44.792;10.358;2023-05-10T10:13:59;13.50;99.90
22850;DHT22;11591;44.792;10.358;2023-05-10T10:16:27;13.50;99.90
22850;DHT22;11591;44.792;10.358;2023-05-10T10:18:54;13.50;99.90
22850;DHT22;11591;44.792;10.358;2023-05-10T10:21:20;13.60;99.90
22850;DHT22;11591;44.792;10.358;2023-05-10T10:23:47;13.60;99.90
22850;DHT22;11591;44.792;10.358;2023-05-10T10:26:13;13.40;99.90
22850;DHT22;11591;44.792;10.358;2023-05-10T10:36:25;12.80;99.90
22850;DHT22;11591;44.792;10.358;2023-05-10T10:38:57;12.50;99.90
22850;DHT22;11591;44.792;10.358;2023-05-10T10:41:54;12.60;99.90
22850;DHT22;11591;44.792;10.358;2023-05-10T10:44:33;12.60;99.90
22850;DHT22;11591;44.792;10.358;2023-05-10T10:49:42;12.70;99.90
22850;DHT22;11591;44.792;10.358;2023-05-10T10:57:53;12.90;99.90
22850;DHT22;11591;44.792;10.358;2023-05-10T11:00:33;13.00;99.90
22850;DHT22;11591;44.792;10.358;2023-05-10T11:03:13;13.10;99.90
22850;DHT22;11591;44.792;10.358;2023-05-10T11:05:44;13.10;99.90
22850;DHT22;11591;44.792;10.358;2023-05-10T11:10:38;12.90;99.90
22850;DHT22;11591;44.792;10.358;2023-05-10T11:13:09;12.80;99.90
22850;DHT22;11591;44.792;10.358;2023-05-10T11:15:39;12.80;99.90
22850;DHT22;11591;44.792;10.358;2023-05-10T11:18:24;12.80;99.90
22850;DHT22;11591;44.792;10.358;2023-05-10T11:20:52;12.80;99.90
22850;DHT22;11591;44.792;10.358;2023-05-10T11:23:18;12.90;99.90
22850;DHT22;11591;44.792;10.358;2023-05-10T11:25:46;13.10;99.90
22850;DHT22;11591;44.792;10.358;2023-05-10T11:28:12;13.30;99.90
22850;DHT22;11591;44.792;10.358;2023-05-10T11:30:39;13.40;99.90
22850;DHT22;11591;44.792;10.358;2023-05-10T11:33:06;13.60;99.90
22850;DHT22;11591;44.792;10.358;2023-05-10T11:35:37;13.60;99.90
22850;DHT22;11591;44.792;10.358;2023-05-10T11:38:06;13.70;99.90
22850;DHT22;11591;44.792;10.358;2023-05-10T11:40:32;13.70;99.90
22850;DHT22;11591;44.792;10.358;2023-05-10T11:42:58;13.70;99.90
22850;DHT22;11591;44.792;10.358;2023-05-10T11:45:25;13.80;99.90
22850;DHT22;11591;44.792;10.358;2023-05-10T11:47:51;13.80;99.90
22850;DHT22;11591;44.792;10.358;2023-05-10T11:50:17;13.90;99.90
22850;DHT22;11591;44.792;10.358;2023-05-10T11:52:43;13.90;99.90
22850;DHT22;11591;44.792;10.358;2023-05-10T11:55:09;14.00;99.90
22850;DHT22;11591;44.792;10.358;2023-05-10T11:57:35;13.90;99.90
22850;DHT22;11591;44.792;10.358;2023-05-10T12:00:01;14.00;99.90
22850;DHT22;11591;44.792;10.358;2023-05-10T12:02:33;14.00;99.90
22850;DHT22;11591;44.792;10.358;2023-05-10T12:04:59;14.10;99.90
22850;DHT22;11591;44.792;10.358;2023-05-10T12:07:26;14.10;99.90
22850;DHT22;11591;44.792;10.358;2023-05-10T12:12:43;14.20;99.90
22850;DHT22;11591;44.792;10.358;2023-05-10T12:17:44;14.20;99.90
22850;DHT22;11591;44.792;10.358;2023-05-10T12:20:21;14.20;99.90
22850;DHT22;11591;44.792;10.358;2023-05-10T12:22:52;14.20;99.90
22850;DHT22;11591;44.792;10.358;2023-05-10T12:25:21;14.30;99.90
22850;DHT22;11591;44.792;10.358;2023-05-10T12:27:59;14.30;99.90
22850;DHT22;11591;44.792;10.358;2023-05-10T12:30:29;14.40;99.90
22850;DHT22;11591;44.792;10.358;2023-05-10T12:33:15;14.50;99.90
22850;DHT22;11591;44.792;10.358;2023-05-10T12:38:36;14.50;99.90
22850;DHT22;11591;44.792;10.358;2023-05-10T12:43:31;14.50;99.90
22850;DHT22;11591;44.792;10.358;2023-05-10T12:45:57;14.60;99.90
22850;DHT22;11591;44.792;10.358;2023-05-10T12:48:23;14.60;99.90
22850;DHT22;11591;44.792;10.358;2023-05-10T12:50:49;14.60;99.90
22850;DHT22;11591;44.792;10.358;2023-05-10T12:53:15;14.60;99.90
22850;DHT22;11591;44.792;10.358;2023-05-10T12:55:42;14.60;99.90
22850;DHT22;11591;44.792;10.358;2023-05-10T12:58:07;14.50;99.90
22850;DHT22;11591;44.792;10.358;2023-05-10T13:00:33;14.60;99.90
22850;DHT22;11591;44.792;10.358;2023-05-10T13:02:59;14.70;99.90
22850;DHT22;11591;44.792;10.358;2023-05-10T13:05:26;14.70;99.90
22850;DHT22;11591;44.792;10.358;2023-05-10T13:07:51;14.70;99.90
22850;DHT22;11591;44.792;10.358;2023-05-10T13:10:17;14.70;99.90
22850;DHT22;11591;44.792;10.358;2023-05-10T13:12:43;14.80;99.90
22850;DHT22;11591;44.792;10.358;2023-05-10T13:15:09;14.80;99.90
22850;DHT22;11591;44.792;10.358;2023-05-10T13:17:35;14.90;99.90
22850;DHT22;11591;44.792;10.358;2023-05-10T13:20:00;14.80;99.90
22850;DHT22;11591;44.792;10.358;2023-05-10T13:22:26;14.80;99.90
22850;DHT22;11591;44.792;10.358;2023-05-10T13:24:52;14.70;99.90
22850;DHT22;11591;44.792;10.358;2023-05-10T13:27:18;14.70;99.90
22850;DHT22;11591;44.792;10.358;2023-05-10T13:29:43;14.70;99.90
22850;DHT22;11591;44.792;10.358;2023-05-10T13:32:09;14.70;99.90
22850;DHT22;11591;44.792;10.358;2023-05-10T13:34:35;14.80;99.90
22850;DHT22;11591;44.792;10.358;2023-05-10T13:37:01;14.90;99.90
22850;DHT22;11591;44.792;10.358;2023-05-10T13:39:27;15.00;99.90
22850;DHT22;11591;44.792;10.358;2023-05-10T13:41:53;15.00;99.90
22850;DHT22;11591;44.792;10.358;2023-05-10T13:44:20;15.10;99.90
22850;DHT22;11591;44.792;10.358;2023-05-10T13:46:46;15.00;99.90
22850;DHT22;11591;44.792;10.358;2023-05-10T13:49:12;15.00;99.90
22850;DHT22;11591;44.792;10.358;2023-05-10T13:51:37;15.00;99.90
22850;DHT22;11591;44.792;10.358;2023-05-10T13:54:03;15.00;99.90
22850;DHT22;11591;44.792;10.358;2023-05-10T13:56:29;14.90;99.90
22850;DHT22;11591;44.792;10.358;2023-05-10T13:58:56;14.60;99.90
22850;DHT22;11591;44.792;10.358;2023-05-10T14:01:22;14.50;99.90
22850;DHT22;11591;44.792;10.358;2023-05-10T14:03:48;14.30;99.90
22850;DHT22;11591;44.792;10.358;2023-05-10T14:06:17;14.30;99.90
22850;DHT22;11591;44.792;10.358;2023-05-10T14:08:44;14.10;99.90
22850;DHT22;11591;44.792;10.358;2023-05-10T14:11:11;14.10;99.90
22850;DHT22;11591;44.792;10.358;2023-05-10T14:13:40;14.00;99.90
22850;DHT22;11591;44.792;10.358;2023-05-10T14:16:16;13.90;99.90
22850;DHT22;11591;44.792;10.358;2023-05-10T14:18:43;13.90;99.90
22850;DHT22;11591;44.792;10.358;2023-05-10T14:21:09;13.90;99.90
22850;DHT22;11591;44.792;10.358;2023-05-10T14:23:35;14.10;99.90
22850;DHT22;11591;44.792;10.358;2023-05-10T14:26:00;14.20;99.90
22850;DHT22;11591;44.792;10.358;2023-05-10T14:28:29;14.10;99.90
22850;DHT22;11591;44.792;10.358;2023-05-10T14:30:55;14.10;99.90
22850;DHT22;11591;44.792;10.358;2023-05-10T14:33:21;14.10;99.90
22850;DHT22;11591;44.792;10.358;2023-05-10T14:35:47;14.10;99.90
22850;DHT22;11591;44.792;10.358;2023-05-10T14:38:14;14.10;99.90
22850;DHT22;11591;44.792;10.358;2023-05-10T14:40:40;14.20;99.90
22850;DHT22;11591;44.792;10.358;2023-05-10T14:43:06;14.20;99.90
22850;DHT22;11591;44.792;10.358;2023-05-10T14:45:32;14.20;99.90
22850;DHT22;11591;44.792;10.358;2023-05-10T14:47:58;14.10;99.90
22850;DHT22;11591;44.792;10.358;2023-05-10T14:50:24;14.20;99.90
22850;DHT22;11591;44.792;10.358;2023-05-10T14:52:50;14.30;99.90
22850;DHT22;11591;44.792;10.358;2023-05-10T14:55:16;14.40;99.90
22850;DHT22;11591;44.792;10.358;2023-05-10T14:57:42;14.40;99.90
22850;DHT22;11591;44.792;10.358;2023-05-10T15:00:10;14.60;99.90
22850;DHT22;11591;44.792;10.358;2023-05-10T15:02:36;14.60;99.90
22850;DHT22;11591;44.792;10.358;2023-05-10T15:05:02;14.70;99.90
22850;DHT22;11591;44.792;10.358;2023-05-10T15:07:27;14.70;99.90
22850;DHT22;11591;44.792;10.358;2023-05-10T15:09:53;14.80;99.90
22850;DHT22;11591;44.792;10.358;2023-05-10T15:12:20;14.80;99.90
22850;DHT22;11591;44.792;10.358;2023-05-10T15:14:46;14.80;99.90
22850;DHT22;11591;44.792;10.358;2023-05-10T15:17:11;14.80;99.90
22850;DHT22;11591;44.792;10.358;2023-05-10T15:19:37;14.80;99.90
22850;DHT22;11591;44.792;10.358;2023-05-10T15:22:04;14.90;99.90
22850;DHT22;11591;44.792;10.358;2023-05-10T15:24:31;14.90;99.90
22850;DHT22;11591;44.792;10.358;2023-05-10T15:26:57;14.90;99.90
22850;DHT22;11591;44.792;10.358;2023-05-10T15:29:22;14.90;99.90
22850;DHT22;11591;44.792;10.358;2023-05-10T15:31:49;14.90;99.90
22850;DHT22;11591;44.792;10.358;2023-05-10T15:34:16;14.90;99.90
22850;DHT22;11591;44.792;10.358;2023-05-10T15:36:42;14.90;99.90
22850;DHT22;11591;44.792;10.358;2023-05-10T15:39:08;14.90;99.90
22850;DHT22;11591;44.792;10.358;2023-05-10T15:41:35;14.70;99.90
22850;DHT22;11591;44.792;10.358;2023-05-10T15:44:01;14.50;99.90
22850;DHT22;11591;44.792;10.358;2023-05-10T15:46:30;14.60;99.90
22850;DHT22;11591;44.792;10.358;2023-05-10T15:48:57;14.50;99.90
22850;DHT22;11591;44.792;10.358;2023-05-10T15:51:24;14.50;99.90
22850;DHT22;11591;44.792;10.358;2023-05-10T15:53:50;14.60;99.90
22850;DHT22;11591;44.792;10.358;2023-05-10T15:56:16;14.60;99.90
22850;DHT22;11591;44.792;10.358;2023-05-10T15:58:43;14.50;99.90
22850;DHT22;11591;44.792;10.358;2023-05-10T16:01:09;14.50;99.90
22850;DHT22;11591;44.792;10.358;2023-05-10T16:03:36;14.50;99.90
22850;DHT22;11591;44.792;10.358;2023-05-10T16:06:02;14.60;99.90
22850;DHT22;11591;44.792;10.358;2023-05-10T16:08:28;14.70;99.90
22850;DHT22;11591;44.792;10.358;2023-05-10T16:11:00;14.70;99.90
22850;DHT22;11591;44.792;10.358;2023-05-10T16:13:27;14.70;99.90